Carnaby — 5WDE — position and weather

sailwx.info

Track history (hours):
 
Tides and Currents Weather Stations Pressure Air Temp Water Temp Dewpoint Dewpoint Depression Visibility Wind Speed Wind Dir Waves Ship Positions

Carnaby

Last reported at 2018-Apr-22 15:58 UTC. Time now 2018-Apr-22 16:20 UTC.
Position N 44°09' E 028°39'.

Length 114 m; draft 3.9 m.

MMSI: 561501088.

Date/timePositionNaut miles runAvg speedWind from/ knotsBaromVisibWave heightAir tempDewpointWater temp
2018-Apr-22 15:58N 44°09' E 028°39'0 0.0
2018-Apr-22 15:28N 44°09' E 028°39'0 0.0
2018-Apr-22 14:58N 44°09' E 028°39'0 0.0
2018-Apr-22 14:28N 44°09' E 028°39'0 0.0
2018-Apr-22 13:58N 44°09' E 028°39'0 0.0
2018-Apr-22 13:28N 44°09' E 028°39'0 0.0
2018-Apr-22 12:58N 44°09' E 028°39'0 0.0
2018-Apr-22 12:28N 44°09' E 028°39'0 0.0
2018-Apr-22 11:58N 44°09' E 028°39'0 0.0
2018-Apr-22 11:28N 44°09' E 028°39'0 0.0
2018-Apr-22 11:01N 44°09' E 028°39'1 1.1
2018-Apr-22 10:31N 44°09' E 028°40'3 5.2
2018-Apr-22 10:00N 44°07' E 028°42'3 6.4
2018-Apr-22 09:30N 44°05' E 028°45'4 7.3
2018-Apr-22 09:00N 44°05' E 028°50'4 7.8
2018-Apr-22 08:30N 44°05' E 028°56'4 7.7
2018-Apr-22 08:00N 44°04' E 029°01'4 7.2
2018-Apr-22 07:30N 44°04' E 029°06'3 6.7
2018-Apr-22 07:00N 44°03' E 029°10'3 6.7
2018-Apr-22 06:31N 44°02' E 029°15'3 6.6
2018-Apr-22 06:00N 44°02' E 029°20'3 6.8
2018-Apr-22 05:31N 44°02' E 029°24'3 6.3
2018-Apr-22 05:00N 44°02' E 029°29'3 5.6
2018-Apr-22 04:30N 44°02' E 029°32'3 5.3
2018-Apr-22 04:00N 44°03' E 029°36'38 5.1
2018-Apr-21 20:34N 44°04' E 030°29'2 6.0
2018-Apr-21 20:14N 44°04' E 030°32'2 6.1
2018-Apr-21 19:57N 44°04' E 030°35'261 5.5
2018-Apr-19 20:20N 45°15' E 036°28'2 5.1
2018-Apr-19 19:59N 45°17' E 036°29'3 5.5
2018-Apr-19 19:29N 45°19' E 036°32'3 6.1
2018-Apr-19 19:00N 45°20' E 036°35'3 5.7
2018-Apr-19 18:30N 45°21' E 036°39'3 5.9
2018-Apr-19 18:01N 45°24' E 036°40'3 6.0
2018-Apr-19 17:30N 45°27' E 036°41'1 1.0
2018-Apr-19 16:58N 45°28' E 036°40'0 0.0
2018-Apr-19 16:28N 45°28' E 036°40'0 0.0
2018-Apr-19 15:58N 45°28' E 036°40'0 0.0
2018-Apr-19 15:28N 45°28' E 036°40'0 0.0
2018-Apr-19 14:49N 45°28' E 036°40'0 0.0
2018-Apr-19 14:28N 45°28' E 036°40'0 0.0
2018-Apr-19 13:58N 45°28' E 036°40'0 0.0
2018-Apr-19 13:28N 45°28' E 036°40'0 0.0
2018-Apr-19 12:58N 45°28' E 036°40'0 0.0
2018-Apr-19 12:28N 45°28' E 036°40'0 0.0
2018-Apr-19 11:58N 45°28' E 036°40'0 0.0
2018-Apr-19 11:28N 45°28' E 036°40'0 0.0
2018-Apr-19 10:58N 45°28' E 036°40'0 0.0
2018-Apr-19 10:28N 45°28' E 036°40'0 0.0
2018-Apr-19 09:58N 45°28' E 036°40'0 0.0
2018-Apr-19 09:28N 45°28' E 036°40'0 0.0
2018-Apr-19 08:58N 45°28' E 036°40'0 0.0
2018-Apr-19 08:28N 45°28' E 036°40'0 0.0
2018-Apr-19 08:00N 45°28' E 036°40'1 2.4
2018-Apr-19 07:30N 45°28' E 036°42'3 5.6
2018-Apr-19 06:59N 45°31' E 036°44'  
2018-Apr-14 23:35N 45°30' E 036°46'1 6.1
2018-Apr-14 23:27N 45°30' E 036°45'3 6.0
2018-Apr-14 23:00N 45°28' E 036°43'3 6.6
2018-Apr-14 22:30N 45°24' E 036°41'3 6.8
2018-Apr-14 22:00N 45°21' E 036°40'3 6.8
2018-Apr-14 21:30N 45°20' E 036°36'4 6.8
2018-Apr-14 20:53N 45°18' E 036°30'2 5.7
2018-Apr-14 20:30N 45°16' E 036°28'1 2.0
2018-Apr-14 20:00N 45°16' E 036°28'2 3.2
2018-Apr-14 19:28N 45°14' E 036°30'1 2.0
2018-Apr-14 18:58N 45°13' E 036°30'0 0.0
2018-Apr-14 18:28N 45°13' E 036°30'0 0.0
2018-Apr-14 17:58N 45°13' E 036°30'4 2.8
2018-Apr-14 16:28N 45°09' E 036°29'3 6.5
2018-Apr-14 15:59N 45°06' E 036°30'3 6.4
2018-Apr-14 15:29N 45°03' E 036°30'  
Track history (hours):
 
Tides and Currents Weather Stations Pressure Air Temp Water Temp Dewpoint Dewpoint Depression Visibility Wind Speed Wind Dir Waves Ship Positions

Carnaby

Last reported at 2018-Apr-22 15:58 UTC. Time now 2018-Apr-22 16:20 UTC.
Position N 44°09' E 028°39'.

Length 114 m; draft 3.9 m.

MMSI: 561501088.

Date/timePositionNaut miles runAvg speedWind from/ knotsBaromVisibWave heightAir tempDewpointWater temp
2018-Apr-22 15:58N 44°09' E 028°39'0 0.0
2018-Apr-22 15:28N 44°09' E 028°39'0 0.0
2018-Apr-22 14:58N 44°09' E 028°39'0 0.0
2018-Apr-22 14:28N 44°09' E 028°39'0 0.0
2018-Apr-22 13:58N 44°09' E 028°39'0 0.0
2018-Apr-22 13:28N 44°09' E 028°39'0 0.0
2018-Apr-22 12:58N 44°09' E 028°39'0 0.0
2018-Apr-22 12:28N 44°09' E 028°39'0 0.0
2018-Apr-22 11:58N 44°09' E 028°39'0 0.0
2018-Apr-22 11:28N 44°09' E 028°39'0 0.0
2018-Apr-22 11:01N 44°09' E 028°39'1 1.1
2018-Apr-22 10:31N 44°09' E 028°40'3 5.2
2018-Apr-22 10:00N 44°07' E 028°42'3 6.4
2018-Apr-22 09:30N 44°05' E 028°45'4 7.3
2018-Apr-22 09:00N 44°05' E 028°50'4 7.8
2018-Apr-22 08:30N 44°05' E 028°56'4 7.7
2018-Apr-22 08:00N 44°04' E 029°01'4 7.2
2018-Apr-22 07:30N 44°04' E 029°06'3 6.7
2018-Apr-22 07:00N 44°03' E 029°10'3 6.7
2018-Apr-22 06:31N 44°02' E 029°15'3 6.6
2018-Apr-22 06:00N 44°02' E 029°20'3 6.8
2018-Apr-22 05:31N 44°02' E 029°24'3 6.3
2018-Apr-22 05:00N 44°02' E 029°29'3 5.6
2018-Apr-22 04:30N 44°02' E 029°32'3 5.3
2018-Apr-22 04:00N 44°03' E 029°36'38 5.1
2018-Apr-21 20:34N 44°04' E 030°29'2 6.0
2018-Apr-21 20:14N 44°04' E 030°32'2 6.1
2018-Apr-21 19:57N 44°04' E 030°35'261 5.5
2018-Apr-19 20:20N 45°15' E 036°28'2 5.1
2018-Apr-19 19:59N 45°17' E 036°29'3 5.5
2018-Apr-19 19:29N 45°19' E 036°32'3 6.1
2018-Apr-19 19:00N 45°20' E 036°35'3 5.7
2018-Apr-19 18:30N 45°21' E 036°39'3 5.9
2018-Apr-19 18:01N 45°24' E 036°40'3 6.0
2018-Apr-19 17:30N 45°27' E 036°41'1 1.0
2018-Apr-19 16:58N 45°28' E 036°40'0 0.0
2018-Apr-19 16:28N 45°28' E 036°40'0 0.0
2018-Apr-19 15:58N 45°28' E 036°40'0 0.0
2018-Apr-19 15:28N 45°28' E 036°40'0 0.0
2018-Apr-19 14:49N 45°28' E 036°40'0 0.0
2018-Apr-19 14:28N 45°28' E 036°40'0 0.0
2018-Apr-19 13:58N 45°28' E 036°40'0 0.0
2018-Apr-19 13:28N 45°28' E 036°40'0 0.0
2018-Apr-19 12:58N 45°28' E 036°40'0 0.0
2018-Apr-19 12:28N 45°28' E 036°40'0 0.0
2018-Apr-19 11:58N 45°28' E 036°40'0 0.0
2018-Apr-19 11:28N 45°28' E 036°40'0 0.0
2018-Apr-19 10:58N 45°28' E 036°40'0 0.0
2018-Apr-19 10:28N 45°28' E 036°40'0 0.0
2018-Apr-19 09:58N 45°28' E 036°40'0 0.0
2018-Apr-19 09:28N 45°28' E 036°40'0 0.0
2018-Apr-19 08:58N 45°28' E 036°40'0 0.0
2018-Apr-19 08:28N 45°28' E 036°40'0 0.0
2018-Apr-19 08:00N 45°28' E 036°40'1 2.4
2018-Apr-19 07:30N 45°28' E 036°42'3 5.6
2018-Apr-19 06:59N 45°31' E 036°44'  
2018-Apr-14 23:35N 45°30' E 036°46'1 6.1
2018-Apr-14 23:27N 45°30' E 036°45'3 6.0
2018-Apr-14 23:00N 45°28' E 036°43'3 6.6
2018-Apr-14 22:30N 45°24' E 036°41'3 6.8
2018-Apr-14 22:00N 45°21' E 036°40'3 6.8
2018-Apr-14 21:30N 45°20' E 036°36'4 6.8
2018-Apr-14 20:53N 45°18' E 036°30'2 5.7
2018-Apr-14 20:30N 45°16' E 036°28'1 2.0
2018-Apr-14 20:00N 45°16' E 036°28'2 3.2
2018-Apr-14 19:28N 45°14' E 036°30'1 2.0
2018-Apr-14 18:58N 45°13' E 036°30'0 0.0
2018-Apr-14 18:28N 45°13' E 036°30'0 0.0
2018-Apr-14 17:58N 45°13' E 036°30'4 2.8
2018-Apr-14 16:28N 45°09' E 036°29'3 6.5
2018-Apr-14 15:59N 45°06' E 036°30'3 6.4
2018-Apr-14 15:29N 45°03' E 036°30'  

Dump ship's entire track history